Time;durP1;ratioP1;P1;durP2;ratioP2;P2;SDS_P1;SDS_P2;PMS_P1;PMS_P2;Temp;Humidity;BMP_temperature;BMP_pressure;BME280_temperature;BME280_humidity;BME280_pressure;Samples;Min_cycle;Max_cycle;Signal;HPM_P1;HPM_P2
2022/02/17 15:23:28;;;;;;;43.42;24.48;;;8.20;99.90;;;;;;5085319;27;1388479;-96
2022/02/17 15:25:54;;;;;;;43.55;24.08;;;8.10;99.90;;;;;;5096501;28;20465;-96
2022/02/17 15:28:20;;;;;;;46.88;25.48;;;8.10;99.90;;;;;;5098368;28;20131;-96
2022/02/17 15:30:47;;;;;;;44.20;23.77;;;8.20;99.90;;;;;;5096137;28;20028;-96
2022/02/17 15:33:16;;;;;;;46.72;24.25;;;8.20;99.90;;;;;;5098348;28;20044;-96
2022/02/17 15:35:42;;;;;;;48.97;24.48;;;8.30;99.90;;;;;;5098517;28;20115;-96
2022/02/17 15:38:08;;;;;;;49.20;24.23;;;8.40;99.90;;;;;;5100285;28;20058;-96
2022/02/17 15:40:50;;;;;;;38.25;22.92;;;8.40;99.90;;;;;;5103008;28;20028;-96
2022/02/17 15:43:17;;;;;;;38.95;22.52;;;8.40;99.90;;;;;;5087219;28;20078;-96
2022/02/17 15:45:48;;;;;;;39.38;21.52;;;8.50;99.90;;;;;;5120646;28;20476;-96
2022/02/17 15:48:19;;;;;;;33.45;18.77;;;8.50;99.90;;;;;;5104253;28;20024;-96
2022/02/17 15:50:56;;;;;;;41.20;20.27;;;8.60;99.90;;;;;;5124071;28;20024;-96
2022/02/17 15:53:31;;;;;;;35.28;21.75;;;8.70;99.90;;;;;;5104412;28;20024;-95
2022/02/17 15:56:02;;;;;;;36.83;20.83;;;8.80;99.90;;;;;;5122771;28;20032;-96
2022/02/17 15:58:28;;;;;;;38.50;21.55;;;8.80;99.90;;;;;;5104832;28;20091;-96
2022/02/17 16:00:54;;;;;;;39.47;20.92;;;8.80;99.90;;;;;;5101695;28;20066;-96
2022/02/17 16:03:24;;;;;;;40.10;21.60;;;8.70;99.90;;;;;;5103123;28;20059;-96
2022/02/17 16:05:54;;;;;;;40.67;22.60;;;8.70;99.90;;;;;;5072530;28;20115;-95
2022/02/17 16:08:23;;;;;;;44.97;24.02;;;8.70;99.90;;;;;;5111444;28;20016;-96
2022/02/17 16:10:51;;;;;;;38.60;22.30;;;8.60;99.90;;;;;;5107661;28;20020;-96
2022/02/17 16:13:25;;;;;;;36.35;21.08;;;8.60;99.90;;;;;;5125283;28;20111;-96
2022/02/17 16:15:54;;;;;;;39.50;21.98;;;8.60;99.90;;;;;;5104391;28;20028;-96
2022/02/17 16:18:27;;;;;;;43.03;21.23;;;8.60;99.90;;;;;;5102365;28;20027;-96
2022/02/17 16:20:56;;;;;;;38.22;19.95;;;8.60;99.90;;;;;;5102051;28;20027;-96
2022/02/17 16:23:28;;;;;;;36.67;21.57;;;8.60;99.90;;;;;;5105560;28;20052;-96
2022/02/17 16:25:54;;;;;;;37.75;21.10;;;8.50;99.90;;;;;;5103792;28;20277;-96
2022/02/17 16:28:22;;;;;;;39.97;21.52;;;8.60;99.90;;;;;;5100035;28;20016;-96
2022/02/17 16:30:48;;;;;;;42.60;22.50;;;8.50;99.90;;;;;;5097597;28;20046;-96
2022/02/17 16:33:13;;;;;;;44.58;22.85;;;8.50;99.90;;;;;;5095516;28;20091;-96
2022/02/17 16:35:42;;;;;;;46.53;24.02;;;8.50;99.90;;;;;;5089906;28;20466;-96
2022/02/17 16:39:15;;;;;;;47.70;24.00;;;8.40;99.90;;;;;;4966917;27;4836935;-96
2022/02/17 16:41:43;;;;;;;44.10;24.45;;;8.30;99.90;;;;;;5106031;28;20091;-96
2022/02/17 16:44:13;;;;;;;36.10;20.23;;;8.30;99.90;;;;;;5098561;28;20020;-95
2022/02/17 16:46:44;;;;;;;39.20;20.63;;;8.20;99.90;;;;;;5102564;28;20031;-96
2022/02/17 16:49:19;;;;;;;38.65;22.45;;;8.10;99.90;;;;;;5105371;28;20022;-96
2022/02/17 16:51:45;;;;;;;33.92;18.02;;;8.10;99.90;;;;;;5100778;28;20224;-95
2022/02/17 16:54:14;;;;;;;25.92;14.75;;;8.00;99.90;;;;;;5106512;28;20020;-96
2022/02/17 16:56:51;;;;;;;24.15;15.38;;;7.90;99.90;;;;;;5106868;27;20030;-96
2022/02/17 16:59:16;;;;;;;29.75;16.52;;;7.90;99.90;;;;;;5097793;28;20047;-96
2022/02/17 17:01:44;;;;;;;30.95;16.25;;;7.80;99.90;;;;;;5096470;28;20462;-96
2022/02/17 17:04:10;;;;;;;32.75;17.02;;;7.80;99.90;;;;;;5097275;28;20051;-94
2022/02/17 17:06:36;;;;;;;35.08;19.17;;;7.70;99.90;;;;;;5098994;28;20346;-96
2022/02/17 17:09:04;;;;;;;28.48;14.82;;;7.60;99.90;;;;;;5096045;28;20043;-95
2022/02/17 17:11:48;;;;;;;21.95;13.07;;;7.60;99.90;;;;;;5101585;28;20008;-96
2022/02/17 17:14:17;;;;;;;20.98;12.80;;;7.50;99.90;;;;;;5118569;28;20023;-96
2022/02/17 17:16:48;;;;;;;24.27;14.35;;;7.50;99.90;;;;;;5119696;28;20024;-96
2022/02/17 17:19:14;;;;;;;21.60;12.93;;;7.40;99.90;;;;;;5093847;28;20020;-96
2022/02/17 17:21:39;;;;;;;22.25;12.35;;;7.30;99.90;;;;;;5093385;28;20508;-94
2022/02/17 17:24:05;;;;;;;23.10;12.70;;;7.30;99.90;;;;;;5093807;28;20077;-95
2022/02/17 17:26:32;;;;;;;21.20;13.02;;;7.20;99.90;;;;;;5093339;28;20107;-93
2022/02/17 17:28:58;;;;;;;23.08;14.13;;;7.10;99.90;;;;;;5093299;28;20070;-95
2022/02/17 17:31:23;;;;;;;22.08;14.43;;;7.10;99.90;;;;;;5093398;28;20531;-95
2022/02/17 17:33:51;;;;;;;23.95;14.07;;;7.10;99.90;;;;;;5093202;28;20110;-95
2022/02/17 17:36:17;;;;;;;23.38;13.55;;;7.10;99.90;;;;;;5093303;28;20020;-94
2022/02/17 17:38:42;;;;;;;23.77;14.07;;;7.00;99.90;;;;;;5093129;28;20044;-95
2022/02/17 17:41:09;;;;;;;24.27;14.02;;;7.00;99.90;;;;;;5093096;28;20024;-95
2022/02/17 17:43:37;;;;;;;20.50;13.13;;;7.00;99.90;;;;;;5093127;28;20042;-93
2022/02/17 17:46:03;;;;;;;21.55;12.85;;;7.00;99.90;;;;;;5093463;28;20024;-95
2022/02/17 17:48:28;;;;;;;19.10;11.80;;;7.00;99.90;;;;;;5090986;28;20046;-93
2022/02/17 17:50:54;;;;;;;22.73;13.05;;;7.00;99.90;;;;;;5079756;28;20047;-94
2022/02/17 17:53:21;;;;;;;21.65;12.82;;;6.90;99.90;;;;;;5079999;28;20030;-95
2022/02/17 17:55:47;;;;;;;19.60;12.48;;;6.90;99.90;;;;;;5079303;28;20378;-96
2022/02/17 17:58:16;;;;;;;28.35;15.13;;;6.90;99.90;;;;;;5080317;28;20028;-93
2022/02/17 18:00:44;;;;;;;24.42;14.98;;;6.90;99.90;;;;;;5079180;28;20016;-96
2022/02/17 18:03:14;;;;;;;34.33;16.92;;;6.90;99.90;;;;;;5079678;28;20031;-96
2022/02/17 18:05:41;;;;;;;32.75;17.67;;;6.90;99.90;;;;;;5080423;28;20070;-96
2022/02/17 18:08:07;;;;;;;30.98;17.92;;;6.80;99.90;;;;;;5079656;28;20032;-95
2022/02/17 18:10:34;;;;;;;29.70;17.05;;;6.80;99.90;;;;;;5079927;28;20028;-96
2022/02/17 18:13:00;;;;;;;33.33;18.70;;;6.80;99.90;;;;;;5082848;28;20489;-96
2022/02/17 18:15:27;;;;;;;34.28;19.10;;;6.80;99.90;;;;;;5083544;28;20047;-96
2022/02/17 18:17:53;;;;;;;31.58;18.08;;;6.80;99.90;;;;;;5085042;28;20028;-96
2022/02/17 18:20:20;;;;;;;32.15;19.58;;;6.80;99.90;;;;;;5091074;28;20011;-96
2022/02/17 18:22:50;;;;;;;31.58;18.45;;;6.80;99.90;;;;;;5111654;28;20034;-96
2022/02/17 18:25:37;;;;;;;30.05;17.17;;;6.80;99.90;;;;;;5090459;28;20089;-96
2022/02/17 18:28:04;;;;;;;30.13;17.67;;;6.80;99.90;;;;;;5089994;28;20028;-96
2022/02/17 18:30:31;;;;;;;38.55;22.42;;;6.80;99.90;;;;;;5068053;28;20055;-96
2022/02/17 18:32:58;;;;;;;35.47;19.95;;;6.80;99.90;;;;;;5081096;28;20028;-96
2022/02/17 18:35:25;;;;;;;35.13;17.80;;;6.80;99.90;;;;;;5083773;28;20020;-96
2022/02/17 18:37:51;;;;;;;26.73;16.27;;;6.80;99.90;;;;;;5081882;28;20036;-96
2022/02/17 18:40:17;;;;;;;33.17;16.95;;;6.80;99.90;;;;;;5087097;28;20016;-96
2022/02/17 18:42:43;;;;;;;37.28;18.35;;;6.80;99.90;;;;;;5081185;28;20566;-96
2022/02/17 18:45:14;;;;;;;31.00;18.13;;;6.80;99.90;;;;;;5081136;28;20021;-96
2022/02/17 18:47:43;;;;;;;31.98;19.08;;;6.80;99.90;;;;;;5079241;28;20027;-96
2022/02/17 18:50:11;;;;;;;31.85;19.65;;;6.80;99.90;;;;;;5079241;28;20054;-96
2022/02/17 18:52:37;;;;;;;34.92;19.30;;;6.80;99.90;;;;;;5083937;28;20031;-96
2022/02/17 18:55:11;;;;;;;33.13;18.70;;;6.80;99.90;;;;;;5089741;28;20027;-96
2022/02/17 18:57:47;;;;;;;34.83;19.02;;;6.80;99.90;;;;;;5115640;28;20053;-96
2022/02/17 19:00:45;;;;;;;37.95;20.08;;;6.80;99.90;;;;;;5086054;28;20032;-96
2022/02/17 19:04:07;;;;;;;35.95;20.25;;;6.80;99.90;;;;;;5112943;28;20028;-96
2022/02/17 19:06:33;;;;;;;38.53;20.35;;;6.80;99.90;;;;;;5088454;28;20020;-96
2022/02/17 19:08:59;;;;;;;35.65;20.73;;;6.70;99.90;;;;;;5105591;28;20032;-96
2022/02/17 19:11:30;;;;;;;37.10;21.17;;;6.70;99.90;;;;;;5094721;28;20024;-96
2022/02/17 19:14:16;;;;;;;37.33;21.05;;;6.70;99.90;;;;;;5080353;28;20028;-96
2022/02/17 19:16:42;;;;;;;38.65;21.33;;;6.70;99.90;;;;;;5084681;28;20039;-96
2022/02/17 19:19:32;;;;;;;38.72;20.92;;;6.70;99.90;;;;;;5090439;28;20040;-97
2022/02/17 19:22:01;;;;;;;37.13;18.52;;;6.70;99.90;;;;;;5113137;28;20046;-96
2022/02/17 19:24:29;;;;;;;34.15;17.02;;;6.70;99.90;;;;;;5073915;28;20034;-96
2022/02/17 19:30:32;;;;;;;24.65;13.68;;;6.70;99.90;;;;;;5111450;28;20054;-96
2022/02/17 19:33:01;;;;;;;20.67;12.52;;;6.70;99.90;;;;;;5097915;28;20085;-96
2022/02/17 19:51:34;;;;;;;16.90;9.10;;;6.80;99.90;;;;;;5707757;23;20050;-96
2022/02/17 19:58:48;;;;;;;14.95;9.48;;;6.70;99.90;;;;;;4978114;28;20074;-96
2022/02/17 20:20:01;;;;;;;15.48;7.70;;;6.70;99.90;;;;;;4986985;28;20047;-96
2022/02/17 20:22:32;;;;;;;14.73;7.95;;;6.80;99.90;;;;;;4971569;28;20019;-96
2022/02/17 20:25:19;;;;;;;13.38;8.20;;;6.80;99.90;;;;;;5047707;23;20081;-96
2022/02/17 20:52:59;;;;;;;19.67;11.10;;;6.60;99.90;;;;;;4966321;29;20070;-96
2022/02/17 20:56:24;;;;;;;18.15;10.30;;;6.60;99.90;;;;;;4971954;29;20015;-96
2022/02/17 20:58:31;;;;;;;19.27;10.88;;;6.60;99.90;;;;;;4971339;29;20024;-96
2022/02/17 21:01:26;;;;;;;20.73;11.18;;;6.60;99.90;;;;;;4972909;29;20055;-96
2022/02/17 21:04:23;;;;;;;17.05;10.25;;;6.60;99.90;;;;;;4954781;29;20011;-96
2022/02/17 21:07:17;;;;;;;19.67;11.32;;;6.50;99.90;;;;;;4929463;28;20027;-96
2022/02/17 21:17:07;;;;;;;13.63;9.23;;;6.50;99.90;;;;;;5275418;23;20082;-96
2022/02/17 21:19:51;;;;;;;14.65;8.93;;;6.40;99.90;;;;;;4978915;28;20031;-96
2022/02/17 21:22:45;;;;;;;12.70;7.80;;;6.40;99.90;;;;;;4993808;28;20045;-96
2022/02/17 21:25:21;;;;;;;13.70;7.55;;;6.30;99.90;;;;;;4948420;28;20023;-96
2022/02/17 21:53:37;;;;;;;11.05;7.22;;;6.00;99.90;;;;;;4921929;29;20074;-96
2022/02/17 22:06:59;;;;;;;9.55;6.53;;;5.90;99.90;;;;;;5900109;23;20069;-96
2022/02/17 22:12:18;;;;;;;12.63;7.28;;;5.80;99.90;;;;;;5901144;23;20122;-96
2022/02/17 22:15:11;;;;;;;12.38;7.30;;;5.70;99.90;;;;;;4965709;28;20417;-96
2022/02/17 22:17:42;;;;;;;12.48;6.82;;;5.70;99.90;;;;;;4993441;28;20035;-96
2022/02/17 22:20:11;;;;;;;13.70;7.82;;;5.60;99.90;;;;;;4959811;28;20030;-96
2022/02/17 22:22:37;;;;;;;16.45;8.65;;;5.50;99.90;;;;;;4974454;28;20052;-96
2022/02/17 22:25:05;;;;;;;17.63;8.98;;;5.40;99.90;;;;;;4973254;28;20034;-96
2022/02/17 22:27:31;;;;;;;17.38;8.38;;;5.30;99.90;;;;;;4971832;28;20035;-96
2022/02/17 22:29:58;;;;;;;14.68;8.77;;;5.30;99.90;;;;;;4969552;28;20031;-96
2022/02/17 22:32:24;;;;;;;11.52;7.03;;;5.20;99.90;;;;;;4969927;28;20031;-96
2022/02/17 22:34:58;;;;;;;12.40;7.25;;;5.20;99.90;;;;;;4970201;28;20034;-96
2022/02/17 22:37:25;;;;;;;15.27;7.65;;;5.10;99.90;;;;;;4984841;28;20031;-96
2022/02/17 22:39:51;;;;;;;12.55;7.03;;;5.10;99.90;;;;;;4966687;28;20034;-96
2022/02/17 22:42:18;;;;;;;12.30;7.78;;;5.00;99.90;;;;;;4966331;28;20045;-96
2022/02/17 22:44:44;;;;;;;11.38;6.88;;;5.00;99.90;;;;;;4966567;28;20023;-96
2022/02/17 22:47:11;;;;;;;14.65;6.97;;;4.90;99.90;;;;;;4966616;28;20019;-96
2022/02/17 22:49:37;;;;;;;12.93;7.20;;;4.90;99.90;;;;;;4967828;28;20166;-96
2022/02/17 22:52:05;;;;;;;11.02;6.90;;;4.80;99.90;;;;;;4967493;28;20034;-96
2022/02/17 22:54:34;;;;;;;12.23;7.03;;;4.70;99.90;;;;;;4965004;28;20023;-96
2022/02/17 22:57:01;;;;;;;10.27;6.63;;;4.70;99.90;;;;;;4964836;28;20026;-96
2022/02/17 22:59:27;;;;;;;11.45;7.05;;;4.60;99.90;;;;;;4963793;28;20292;-96
2022/02/17 23:01:53;;;;;;;11.50;6.88;;;4.50;99.90;;;;;;4964643;28;20023;-96
2022/02/17 23:04:20;;;;;;;10.02;6.00;;;4.40;99.90;;;;;;4962866;28;20090;-96
2022/02/17 23:06:47;;;;;;;10.10;6.50;;;4.40;99.90;;;;;;4962799;28;20089;-96
2022/02/17 23:11:57;;;;;;;8.77;5.93;;;4.30;99.90;;;;;;4982021;28;20073;-96
2022/02/17 23:14:22;;;;;;;10.32;6.15;;;4.30;99.90;;;;;;4961866;28;20051;-96
2022/02/17 23:19:32;;;;;;;8.95;6.07;;;4.20;99.90;;;;;;4977636;28;20041;-96
2022/02/17 23:21:58;;;;;;;11.18;6.50;;;4.20;99.90;;;;;;4959688;28;20394;-96
2022/02/17 23:24:24;;;;;;;13.68;7.32;;;4.20;99.90;;;;;;4960127;28;20070;-96
2022/02/17 23:26:50;;;;;;;10.65;6.55;;;4.10;99.90;;;;;;4962226;28;20019;-96
2022/02/17 23:29:16;;;;;;;10.18;6.57;;;4.10;99.90;;;;;;4966585;28;20027;-96
2022/02/17 23:31:44;;;;;;;10.05;6.25;;;4.10;99.90;;;;;;4967864;28;20057;-96
2022/02/17 23:34:12;;;;;;;11.67;5.70;;;4.10;99.90;;;;;;4988893;28;20107;-96
2022/02/17 23:36:38;;;;;;;9.95;6.25;;;4.10;99.90;;;;;;4955895;28;20273;-96
2022/02/17 23:39:07;;;;;;;13.68;7.15;;;4.10;99.90;;;;;;4973296;28;20034;-96
2022/02/17 23:41:35;;;;;;;14.60;7.68;;;4.20;99.90;;;;;;4971642;28;20053;-96
2022/02/17 23:44:06;;;;;;;16.20;9.25;;;4.40;99.90;;;;;;4973798;28;20023;-96
2022/02/17 23:46:35;;;;;;;19.45;10.15;;;4.40;99.90;;;;;;4973899;28;20120;-96
2022/02/17 23:49:05;;;;;;;24.10;11.85;;;4.40;99.90;;;;;;4988634;28;20022;-96
2022/02/17 23:51:32;;;;;;;21.42;11.40;;;4.40;99.90;;;;;;4972029;28;20537;-96
2022/02/17 23:54:00;;;;;;;18.20;9.75;;;4.30;99.90;;;;;;4973603;28;20031;-96
2022/02/17 23:56:31;;;;;;;8.82;6.35;;;4.30;99.90;;;;;;4988251;28;20043;-96
2022/02/17 23:58:57;;;;;;;10.68;6.63;;;4.30;99.90;;;;;;4969332;28;20039;-96
